Time;durP1;ratioP1;P1;durP2;ratioP2;P2;SDS_P1;SDS_P2;PMS_P1;PMS_P2;Temp;Humidity;BMP_temperature;BMP_pressure;BME280_temperature;BME280_humidity;BME280_pressure;Samples;Min_cycle;Max_cycle;Signal;HPM_P1;HPM_P2
2023/01/16 00:01:43;;;;;;;11.80;3.97;;;23.90;45.00;;;;;;5066639;28;20213;-72
2023/01/16 00:04:10;;;;;;;6.43;2.53;;;23.90;45.20;;;;;;5066139;28;20202;-71
2023/01/16 00:06:38;;;;;;;11.90;4.03;;;23.90;45.20;;;;;;5064536;28;20195;-71
2023/01/16 00:09:05;;;;;;;8.77;3.20;;;23.90;45.30;;;;;;5066519;28;20265;-72
2023/01/16 00:11:32;;;;;;;9.03;3.50;;;23.90;45.20;;;;;;5062483;28;20723;-71
2023/01/16 00:13:59;;;;;;;7.00;2.77;;;23.90;45.20;;;;;;5067450;28;20219;-73
2023/01/16 00:16:28;;;;;;;8.03;3.23;;;23.90;45.20;;;;;;5068140;28;20210;-72
2023/01/16 00:18:55;;;;;;;9.10;3.33;;;23.90;45.20;;;;;;5064985;28;20211;-73
2023/01/16 00:21:25;;;;;;;8.00;2.97;;;23.90;45.20;;;;;;5064155;28;20210;-71
2023/01/16 00:23:53;;;;;;;7.23;2.97;;;23.90;45.20;;;;;;5065734;28;20207;-73
2023/01/16 00:26:20;;;;;;;5.70;2.27;;;23.90;45.20;;;;;;5066331;28;20286;-73
2023/01/16 00:28:47;;;;;;;7.07;2.70;;;23.90;45.10;;;;;;5064475;28;20211;-71
2023/01/16 00:31:14;;;;;;;7.10;2.83;;;23.90;45.10;;;;;;5067199;28;20200;-73
2023/01/16 00:33:43;;;;;;;7.67;2.70;;;23.90;45.10;;;;;;5066807;28;20286;-74
2023/01/16 00:36:10;;;;;;;8.73;3.10;;;24.00;45.20;;;;;;5051132;28;20656;-70
2023/01/16 00:38:37;;;;;;;6.77;2.67;;;23.90;45.20;;;;;;5062397;28;20206;-74
2023/01/16 00:41:04;;;;;;;7.07;2.93;;;24.00;45.30;;;;;;5067571;28;20643;-73
2023/01/16 00:43:31;;;;;;;8.23;2.80;;;23.90;45.20;;;;;;5055503;28;20200;-71
2023/01/16 00:45:58;;;;;;;8.13;3.07;;;24.00;45.30;;;;;;5051910;28;20237;-71
2023/01/16 00:48:25;;;;;;;9.57;3.57;;;24.00;45.30;;;;;;5064320;28;20215;-71
2023/01/16 00:50:54;;;;;;;12.43;4.17;;;24.00;45.20;;;;;;5068740;28;20326;-70
2023/01/16 00:53:21;;;;;;;9.73;3.50;;;24.00;45.90;;;;;;5069388;28;20286;-70
2023/01/16 00:55:48;;;;;;;7.17;2.77;;;23.90;45.20;;;;;;5069632;28;20322;-70
2023/01/16 00:58:15;;;;;;;6.20;2.47;;;24.00;45.30;;;;;;5061558;28;20556;-71
2023/01/16 01:00:42;;;;;;;17.87;5.83;;;24.00;45.30;;;;;;5059919;28;20195;-72
2023/01/16 01:03:08;;;;;;;6.70;2.60;;;24.00;45.30;;;;;;5069769;28;20202;-74
2023/01/16 01:05:37;;;;;;;7.90;2.80;;;24.00;45.20;;;;;;5072270;28;20238;-71
2023/01/16 01:08:06;;;;;;;8.50;3.13;;;24.00;45.10;;;;;;5068763;28;20202;-71
2023/01/16 01:10:36;;;;;;;6.50;2.70;;;24.00;45.10;;;;;;5071226;28;20210;-73
2023/01/16 01:13:03;;;;;;;12.97;4.53;;;24.00;45.10;;;;;;5066894;28;20206;-72
2023/01/16 01:15:30;;;;;;;7.27;2.73;;;24.00;45.10;;;;;;5068863;28;20314;-72
2023/01/16 01:17:57;;;;;;;8.33;2.97;;;24.00;45.00;;;;;;5068981;28;20196;-72
2023/01/16 01:20:24;;;;;;;4.00;1.93;;;24.00;44.90;;;;;;5071489;28;20215;-71
2023/01/16 01:22:51;;;;;;;6.90;2.87;;;24.00;45.00;;;;;;5070630;28;20196;-75
2023/01/16 01:25:19;;;;;;;9.97;3.00;;;24.00;45.60;;;;;;5068084;28;20278;-71
2023/01/16 01:27:46;;;;;;;10.83;3.73;;;24.00;45.00;;;;;;5067487;28;20199;-71
2023/01/16 01:30:14;;;;;;;5.00;2.13;;;24.00;45.00;;;;;;5071060;28;20213;-73
2023/01/16 01:32:41;;;;;;;7.10;2.67;;;24.00;44.80;;;;;;5070173;28;20287;-71
2023/01/16 01:35:09;;;;;;;7.53;2.97;;;24.00;44.90;;;;;;5070623;28;20235;-72
2023/01/16 01:37:36;;;;;;;7.27;2.87;;;24.00;45.00;;;;;;5070397;28;20250;-70
2023/01/16 01:40:04;;;;;;;8.07;3.03;;;24.00;45.00;;;;;;5069535;28;20217;-69
2023/01/16 01:42:43;;;;;;;14.67;4.37;;;24.10;45.20;;;;;;5067954;28;20725;-70
2023/01/16 01:45:16;;;;;;;8.93;3.10;;;24.10;44.90;;;;;;5069240;28;20206;-74
2023/01/16 01:47:49;;;;;;;7.90;3.17;;;24.00;45.10;;;;;;5067260;28;20722;-70
2023/01/16 01:50:22;;;;;;;6.20;2.90;;;24.00;44.90;;;;;;5069813;28;20223;-69
2023/01/16 01:52:51;;;;;;;7.37;2.93;;;24.10;45.00;;;;;;5069067;28;20574;-75
2023/01/16 01:55:18;;;;;;;7.90;2.97;;;24.00;45.00;;;;;;5067761;28;20227;-70
2023/01/16 01:57:54;;;;;;;6.70;2.57;;;24.10;45.00;;;;;;5068942;28;20199;-71
2023/01/16 02:00:23;;;;;;;6.13;2.57;;;24.00;44.90;;;;;;5070572;28;20613;-75
2023/01/16 02:02:56;;;;;;;5.93;2.63;;;24.00;44.90;;;;;;5068414;28;20213;-73
2023/01/16 02:05:27;;;;;;;6.47;2.67;;;24.00;44.80;;;;;;5070708;28;20205;-71
2023/01/16 02:07:55;;;;;;;11.43;3.77;;;24.00;45.50;;;;;;5066104;28;20275;-72
2023/01/16 02:10:29;;;;;;;11.17;3.93;;;24.00;45.10;;;;;;5068508;28;20210;-71
2023/01/16 02:12:59;;;;;;;6.47;2.83;;;24.00;44.80;;;;;;5070049;28;20598;-72
2023/01/16 02:15:26;;;;;;;6.43;2.53;;;24.10;44.90;;;;;;5069243;28;20258;-75
2023/01/16 02:20:49;;;;;;;8.10;3.00;;;24.00;45.00;;;;;;5068543;28;20658;-74
2023/01/16 02:23:41;;;;;;;6.83;2.73;;;24.00;44.80;;;;;;5068417;28;20195;-71
2023/01/16 02:26:34;;;;;;;8.83;3.47;;;24.00;44.90;;;;;;5066461;28;20933;-72
2023/01/16 02:29:33;;;;;;;8.23;3.17;;;24.00;44.90;;;;;;5068092;28;20225;-71
2023/01/16 02:32:11;;;;;;;5.93;2.30;;;24.10;44.90;;;;;;5069441;28;20207;-70
2023/01/16 02:34:52;;;;;;;6.20;2.43;;;24.00;44.80;;;;;;5069862;28;20687;-72
2023/01/16 02:37:29;;;;;;;8.30;3.00;;;24.00;44.80;;;;;;5068073;28;20202;-75
2023/01/16 02:40:05;;;;;;;5.90;2.37;;;24.10;45.00;;;;;;5068477;28;20235;-70
2023/01/16 02:42:41;;;;;;;6.60;2.77;;;24.10;44.80;;;;;;5068107;28;20211;-73
2023/01/16 02:45:18;;;;;;;11.50;4.20;;;24.10;44.90;;;;;;5066674;28;20214;-71
2023/01/16 02:47:49;;;;;;;5.77;2.47;;;24.00;44.70;;;;;;5068583;28;20202;-76
2023/01/16 02:50:23;;;;;;;6.67;2.60;;;24.00;44.80;;;;;;5067957;28;20222;-70
2023/01/16 02:52:57;;;;;;;5.53;2.67;;;24.00;44.70;;;;;;5068499;28;20207;-70
2023/01/16 02:55:29;;;;;;;5.60;2.63;;;24.00;44.70;;;;;;5065985;28;20238;-74
2023/01/16 02:57:59;;;;;;;16.93;5.53;;;24.00;45.00;;;;;;5064134;28;20326;-72
2023/01/16 03:00:28;;;;;;;6.97;2.73;;;24.10;45.00;;;;;;5068776;28;20675;-71
2023/01/16 03:02:56;;;;;;;7.60;2.90;;;24.10;44.80;;;;;;5068349;28;20707;-71
2023/01/16 03:05:24;;;;;;;11.57;4.13;;;24.10;44.70;;;;;;5067561;28;20199;-74
2023/01/16 03:08:31;;;;;;;17.60;5.97;;;24.10;44.70;;;;;;5066570;28;20819;-76
2023/01/16 03:11:22;;;;;;;5.47;2.37;;;24.00;44.80;;;;;;4991509;28;20212;-72
2023/01/16 03:14:10;;;;;;;6.87;2.97;;;24.10;44.80;;;;;;5004838;28;20237;-70
2023/01/16 03:16:42;;;;;;;19.03;6.30;;;24.10;44.80;;;;;;5052689;28;20223;-70
2023/01/16 03:19:29;;;;;;;6.47;2.73;;;24.10;44.80;;;;;;5062323;28;20651;-72
2023/01/16 03:22:08;;;;;;;6.50;2.70;;;24.00;44.80;;;;;;5067420;28;20207;-70
2023/01/16 03:24:49;;;;;;;9.00;3.27;;;24.10;44.70;;;;;;5058614;28;20199;-75
2023/01/16 03:27:27;;;;;;;6.27;2.77;;;24.10;45.00;;;;;;5069249;28;20196;-70
2023/01/16 03:29:59;;;;;;;8.17;3.23;;;24.10;44.80;;;;;;5068440;28;20207;-71
2023/01/16 03:32:31;;;;;;;6.53;2.73;;;24.10;44.70;;;;;;5060603;28;20244;-70
2023/01/16 03:35:03;;;;;;;8.30;3.30;;;24.10;44.90;;;;;;5066880;28;20223;-70
2023/01/16 03:37:36;;;;;;;7.97;3.17;;;24.10;45.00;;;;;;5062572;28;20204;-69
2023/01/16 03:40:06;;;;;;;7.20;2.87;;;24.10;44.80;;;;;;5066762;28;20207;-70
2023/01/16 03:42:38;;;;;;;11.10;3.77;;;24.10;44.90;;;;;;5065830;28;20210;-70
2023/01/16 03:45:10;;;;;;;5.53;2.43;;;24.10;45.00;;;;;;5061775;28;20204;-70
2023/01/16 03:47:41;;;;;;;5.83;2.43;;;24.10;44.80;;;;;;5067310;28;20204;-71
2023/01/16 03:50:12;;;;;;;7.47;2.77;;;24.10;44.80;;;;;;5068880;28;20221;-70
2023/01/16 03:52:42;;;;;;;8.33;3.23;;;24.10;45.10;;;;;;5064778;28;20207;-70
2023/01/16 03:55:16;;;;;;;8.97;3.30;;;24.10;45.00;;;;;;5067514;28;20594;-72
2023/01/16 03:57:47;;;;;;;7.83;2.77;;;24.10;45.00;;;;;;5067803;28;20203;-71
2023/01/16 04:00:14;;;;;;;6.50;2.63;;;24.10;45.20;;;;;;5066763;28;20733;-71
2023/01/16 04:02:46;;;;;;;6.80;2.50;;;24.10;45.30;;;;;;5066786;28;20333;-71
2023/01/16 04:05:18;;;;;;;6.90;2.97;;;24.10;45.10;;;;;;5068851;28;20230;-70
2023/01/16 04:07:48;;;;;;;6.63;2.60;;;24.10;44.90;;;;;;5066867;28;20211;-73
2023/01/16 04:10:20;;;;;;;10.47;3.93;;;24.10;45.00;;;;;;5068483;28;20208;-70
2023/01/16 04:12:50;;;;;;;6.33;2.47;;;24.10;44.80;;;;;;5066123;28;20211;-72
2023/01/16 04:15:19;;;;;;;7.20;2.73;;;24.10;44.90;;;;;;5068958;28;20326;-72
2023/01/16 04:17:46;;;;;;;10.40;3.87;;;24.10;45.00;;;;;;5068351;28;20208;-70
2023/01/16 04:20:14;;;;;;;7.80;2.97;;;24.10;45.00;;;;;;5071234;28;20214;-70
2023/01/16 04:22:49;;;;;;;7.07;2.87;;;24.10;45.00;;;;;;5070930;28;20242;-70
2023/01/16 04:25:17;;;;;;;6.67;2.90;;;24.10;44.90;;;;;;5070054;28;20892;-69
2023/01/16 04:27:44;;;;;;;7.87;2.97;;;24.10;45.10;;;;;;5068132;28;20285;-70
2023/01/16 04:30:11;;;;;;;9.10;3.17;;;24.10;45.20;;;;;;5069053;28;20589;-70
2023/01/16 04:32:38;;;;;;;12.93;4.50;;;24.10;45.00;;;;;;5070535;28;20200;-70
2023/01/16 04:35:06;;;;;;;7.33;3.13;;;24.10;44.90;;;;;;5071699;28;20314;-73
2023/01/16 04:37:34;;;;;;;11.93;3.93;;;24.20;45.10;;;;;;5070360;28;20195;-70
2023/01/16 04:40:02;;;;;;;7.80;3.10;;;24.10;44.90;;;;;;5071852;28;20199;-70
2023/01/16 04:42:29;;;;;;;6.50;2.63;;;24.20;45.20;;;;;;5070791;28;20221;-70
2023/01/16 04:44:56;;;;;;;6.20;2.70;;;24.20;45.10;;;;;;5072043;28;20286;-72
2023/01/16 04:47:23;;;;;;;6.30;2.53;;;24.20;45.00;;;;;;5068154;28;20200;-70
2023/01/16 04:49:50;;;;;;;6.40;2.67;;;24.20;44.90;;;;;;5071667;28;20276;-69
2023/01/16 04:52:17;;;;;;;13.03;4.50;;;24.20;44.90;;;;;;5068046;28;20623;-71
2023/01/16 04:54:44;;;;;;;8.40;3.30;;;24.20;44.90;;;;;;5070921;28;20203;-71
2023/01/16 04:57:12;;;;;;;6.90;2.60;;;24.20;44.90;;;;;;5061745;28;20229;-70
2023/01/16 04:59:39;;;;;;;7.23;2.57;;;24.20;45.00;;;;;;5070673;28;20203;-70
2023/01/16 05:02:06;;;;;;;4.97;2.03;;;24.20;45.20;;;;;;5069254;28;20534;-69
2023/01/16 05:04:33;;;;;;;9.73;3.40;;;24.20;45.20;;;;;;5071172;28;20202;-70
2023/01/16 05:06:59;;;;;;;7.17;2.93;;;24.20;45.10;;;;;;5070317;28;20210;-69
2023/01/16 05:09:26;;;;;;;6.03;2.43;;;24.20;45.10;;;;;;5071030;28;20237;-73
2023/01/16 05:11:53;;;;;;;8.23;3.00;;;24.20;45.20;;;;;;5070950;28;20204;-69
2023/01/16 05:14:22;;;;;;;5.67;2.33;;;24.20;45.00;;;;;;5070370;28;20203;-69
2023/01/16 05:16:49;;;;;;;20.80;6.77;;;24.20;45.00;;;;;;5069405;28;20227;-70
2023/01/16 05:19:16;;;;;;;14.77;5.07;;;24.20;45.00;;;;;;5064240;28;20633;-69
2023/01/16 05:21:43;;;;;;;11.00;3.77;;;24.20;44.90;;;;;;5065275;28;20200;-70
2023/01/16 05:24:10;;;;;;;7.23;2.73;;;24.20;45.00;;;;;;5070115;28;20647;-70
2023/01/16 05:26:37;;;;;;;5.77;2.53;;;24.20;45.00;;;;;;5063303;28;20287;-73
2023/01/16 05:29:03;;;;;;;7.70;2.87;;;24.20;45.00;;;;;;5063095;28;20194;-69
2023/01/16 05:31:32;;;;;;;9.10;3.20;;;24.20;44.90;;;;;;5063590;28;20222;-75
2023/01/16 05:33:58;;;;;;;12.60;4.23;;;24.20;45.10;;;;;;5065870;28;20231;-74
2023/01/16 05:36:25;;;;;;;6.60;2.57;;;24.20;45.00;;;;;;5065512;28;20239;-71
2023/01/16 05:38:54;;;;;;;7.30;2.67;;;24.20;45.00;;;;;;5068753;28;20210;-73
2023/01/16 05:41:21;;;;;;;8.60;3.40;;;24.20;45.10;;;;;;5070767;28;20265;-76
2023/01/16 05:43:48;;;;;;;11.23;3.77;;;24.20;45.10;;;;;;5068743;28;20673;-76
2023/01/16 05:46:15;;;;;;;13.10;4.63;;;24.30;45.00;;;;;;5065448;28;20227;-73
2023/01/16 05:48:43;;;;;;;7.47;3.00;;;24.30;45.00;;;;;;5068572;28;20233;-73
2023/01/16 05:51:11;;;;;;;6.83;2.80;;;24.20;44.80;;;;;;5068063;28;20199;-70
2023/01/16 05:53:38;;;;;;;8.10;2.93;;;24.30;45.10;;;;;;5068955;28;20260;-74
2023/01/16 05:56:08;;;;;;;7.10;2.77;;;24.30;45.20;;;;;;5069932;28;20227;-70
2023/01/16 05:58:35;;;;;;;6.77;2.63;;;24.30;44.90;;;;;;5066065;28;20661;-77
2023/01/16 06:01:02;;;;;;;13.90;4.77;;;24.20;44.90;;;;;;5064972;28;20191;-78
2023/01/16 06:03:29;;;;;;;11.17;3.87;;;24.30;45.20;;;;;;5061678;28;20210;-79
2023/01/16 06:05:58;;;;;;;8.33;3.17;;;24.30;45.10;;;;;;5063592;28;20202;-70
2023/01/16 06:08:25;;;;;;;10.30;3.73;;;24.30;45.00;;;;;;5055064;28;20389;-72
2023/01/16 06:10:52;;;;;;;11.33;3.97;;;24.30;45.00;;;;;;5061134;28;20200;-70
2023/01/16 06:13:20;;;;;;;15.40;5.20;;;24.30;45.10;;;;;;5066522;28;20200;-71
2023/01/16 06:15:47;;;;;;;9.80;3.27;;;24.30;45.10;;;;;;5069525;28;20245;-72
2023/01/16 06:18:14;;;;;;;5.37;2.13;;;24.30;45.10;;;;;;5065352;28;20227;-70
2023/01/16 06:20:41;;;;;;;12.23;4.23;;;24.30;45.00;;;;;;5061615;28;20214;-69
2023/01/16 06:23:10;;;;;;;7.13;2.90;;;24.30;45.60;;;;;;5066172;28;20298;-71
2023/01/16 06:25:37;;;;;;;12.30;3.23;;;24.30;44.60;;;;;;5066894;28;20294;-69
2023/01/16 06:28:04;;;;;;;9.63;3.10;;;24.30;44.60;;;;;;5068041;28;20194;-72
2023/01/16 06:30:31;;;;;;;7.97;2.77;;;24.30;44.70;;;;;;5062710;28;20247;-72
2023/01/16 06:32:58;;;;;;;5.20;2.10;;;24.30;44.70;;;;;;5065806;28;20210;-74
2023/01/16 06:35:24;;;;;;;10.30;3.40;;;24.30;44.60;;;;;;5069244;28;20317;-71
2023/01/16 06:37:51;;;;;;;7.73;2.87;;;24.30;44.60;;;;;;5067565;28;20234;-73
2023/01/16 06:40:20;;;;;;;8.07;3.10;;;24.30;44.60;;;;;;5068635;28;20652;-71
2023/01/16 06:42:48;;;;;;;6.90;2.23;;;24.40;44.70;;;;;;5068068;28;20669;-71
2023/01/16 06:45:14;;;;;;;9.20;3.40;;;24.30;44.80;;;;;;5068504;28;20200;-74
2023/01/16 06:47:41;;;;;;;11.10;4.07;;;24.30;44.80;;;;;;5068830;28;20200;-73
2023/01/16 06:50:10;;;;;;;6.33;2.50;;;24.30;44.80;;;;;;5061171;28;20584;-71
2023/01/16 06:52:37;;;;;;;7.93;2.90;;;24.30;44.80;;;;;;5069525;28;20321;-74
2023/01/16 06:55:05;;;;;;;8.90;3.17;;;24.30;45.30;;;;;;5067663;28;20206;-77
2023/01/16 06:57:35;;;;;;;8.00;2.77;;;24.40;44.70;;;;;;5068573;28;20231;-71
2023/01/16 07:00:03;;;;;;;8.77;3.27;;;24.40;44.90;;;;;;5068772;28;20210;-71
2023/01/16 07:02:30;;;;;;;11.93;3.97;;;24.40;44.80;;;;;;5067834;28;20260;-71
2023/01/16 07:04:57;;;;;;;4.53;2.10;;;24.30;44.60;;;;;;5068125;28;20310;-71
2023/01/16 07:07:24;;;;;;;5.83;2.27;;;24.30;44.50;;;;;;5069229;28;20314;-75
2023/01/16 07:09:50;;;;;;;12.17;4.20;;;24.30;44.60;;;;;;5068049;28;20225;-70
2023/01/16 07:12:17;;;;;;;8.27;3.00;;;24.30;44.60;;;;;;5066050;28;20221;-72
2023/01/16 07:22:59;;;;;;;5.70;2.37;;;24.20;44.50;;;;;;5069216;28;20249;-71
2023/01/16 07:25:31;;;;;;;7.20;2.83;;;24.20;44.50;;;;;;5067076;28;20199;-72
2023/01/16 07:27:57;;;;;;;7.23;2.80;;;24.20;44.50;;;;;;5057978;28;20210;-71
2023/01/16 07:30:28;;;;;;;7.10;2.73;;;24.20;44.60;;;;;;5058770;28;20544;-71
2023/01/16 07:32:54;;;;;;;12.03;4.17;;;24.20;44.50;;;;;;5066425;28;20430;-70
2023/01/16 07:35:21;;;;;;;7.50;2.93;;;23.90;44.10;;;;;;5067996;28;21142;-70
2023/01/16 07:37:50;;;;;;;5.37;2.20;;;24.00;44.60;;;;;;5067395;28;20604;-71
2023/01/16 07:40:17;;;;;;;7.77;2.87;;;24.00;44.50;;;;;;5068567;28;20217;-71
2023/01/16 07:42:44;;;;;;;7.20;2.73;;;24.10;44.50;;;;;;5067203;28;20203;-74
2023/01/16 07:45:11;;;;;;;8.60;3.07;;;24.10;45.00;;;;;;5060974;28;20279;-71
2023/01/16 07:47:39;;;;;;;5.93;2.50;;;24.10;44.50;;;;;;5067662;28;20294;-71
2023/01/16 07:50:07;;;;;;;6.10;2.33;;;24.10;44.50;;;;;;5068647;28;21110;-70
2023/01/16 07:52:34;;;;;;;6.57;2.57;;;24.10;44.30;;;;;;5068152;28;20285;-70
2023/01/16 07:55:01;;;;;;;8.47;2.77;;;24.10;44.40;;;;;;5067490;28;20199;-71
2023/01/16 07:57:28;;;;;;;10.33;3.80;;;24.10;44.50;;;;;;5066381;28;20663;-71
2023/01/16 07:59:55;;;;;;;5.77;2.60;;;24.10;44.60;;;;;;5068559;28;20210;-74
2023/01/16 08:02:22;;;;;;;12.47;4.30;;;24.00;44.50;;;;;;5066872;28;20210;-76
2023/01/16 08:04:50;;;;;;;5.93;2.43;;;24.00;44.40;;;;;;5067124;28;20206;-70
2023/01/16 08:07:17;;;;;;;12.97;3.87;;;24.00;44.50;;;;;;5065952;28;20286;-75
2023/01/16 08:09:44;;;;;;;7.40;2.77;;;24.00;44.50;;;;;;5067764;28;20294;-75
2023/01/16 08:12:11;;;;;;;6.93;2.67;;;24.00;44.50;;;;;;5066854;28;20195;-70
2023/01/16 08:14:39;;;;;;;6.10;2.43;;;24.00;44.40;;;;;;5054755;28;20288;-72
2023/01/16 08:17:06;;;;;;;9.17;3.10;;;24.00;44.60;;;;;;5057457;28;20227;-69
2023/01/16 08:19:33;;;;;;;7.60;2.93;;;23.90;44.40;;;;;;5067752;28;20215;-71
2023/01/16 08:22:02;;;;;;;7.03;2.80;;;23.90;44.40;;;;;;5067262;28;20203;-71
2023/01/16 08:24:29;;;;;;;7.20;2.83;;;23.90;44.60;;;;;;5068181;28;20203;-72
2023/01/16 08:26:56;;;;;;;5.63;2.13;;;23.90;44.50;;;;;;5065762;28;20237;-71
2023/01/16 08:29:23;;;;;;;6.20;2.50;;;23.90;44.40;;;;;;5067341;28;20242;-70
2023/01/16 08:31:50;;;;;;;6.73;2.70;;;23.90;44.60;;;;;;5067101;28;20282;-72
2023/01/16 08:34:18;;;;;;;7.03;2.70;;;23.90;44.50;;;;;;5067382;28;20418;-71
2023/01/16 08:36:45;;;;;;;6.23;2.53;;;23.90;44.70;;;;;;5064885;28;20215;-71
2023/01/16 08:39:13;;;;;;;7.93;3.07;;;23.90;44.80;;;;;;5063436;28;20207;-72
2023/01/16 08:52:42;;;;;;;6.47;2.57;;;23.90;44.90;;;;;;5065909;28;20207;-69
2023/01/16 08:55:10;;;;;;;6.70;2.60;;;23.90;44.70;;;;;;5065939;28;20204;-71
2023/01/16 08:57:40;;;;;;;5.83;2.40;;;23.90;44.60;;;;;;5067517;28;20780;-73
2023/01/16 09:00:09;;;;;;;6.73;2.77;;;23.80;44.70;;;;;;5066964;28;20207;-72
2023/01/16 09:02:38;;;;;;;6.93;2.73;;;23.80;44.70;;;;;;5069879;28;20688;-69
2023/01/16 09:05:06;;;;;;;7.97;2.93;;;23.90;44.70;;;;;;5070589;28;20199;-69
2023/01/16 09:07:33;;;;;;;6.77;2.73;;;23.80;44.60;;;;;;5068057;28;20219;-69
2023/01/16 09:10:00;;;;;;;6.93;2.50;;;23.90;44.70;;;;;;5069001;28;20294;-69
2023/01/16 09:15:12;;;;;;;7.57;2.73;;;23.80;44.60;;;;;;5070561;28;20267;-70
2023/01/16 09:17:39;;;;;;;7.67;2.77;;;23.80;44.50;;;;;;5071211;28;20234;-70
2023/01/16 09:20:07;;;;;;;9.10;3.13;;;23.80;44.70;;;;;;5070115;28;20233;-70
2023/01/16 09:22:34;;;;;;;7.93;2.87;;;23.80;44.70;;;;;;5069692;28;20291;-70
2023/01/16 09:25:01;;;;;;;6.17;2.57;;;23.80;44.50;;;;;;5071392;28;20223;-70
2023/01/16 09:27:29;;;;;;;6.00;2.23;;;23.80;44.50;;;;;;5070721;28;20222;-69
2023/01/16 09:29:56;;;;;;;5.83;2.40;;;23.80;44.80;;;;;;5069182;28;20279;-70
2023/01/16 09:32:23;;;;;;;12.17;4.13;;;23.80;44.80;;;;;;5069890;28;20245;-70
2023/01/16 09:34:50;;;;;;;7.27;2.73;;;23.80;44.70;;;;;;5069223;28;20210;-70
2023/01/16 09:37:18;;;;;;;5.83;2.37;;;23.80;44.70;;;;;;5070259;28;20229;-69
2023/01/16 09:39:45;;;;;;;7.43;2.80;;;23.80;44.70;;;;;;5070267;28;20219;-70
2023/01/16 09:45:23;;;;;;;5.63;2.30;;;23.80;44.40;;;;;;5070152;28;20280;-70
2023/01/16 09:47:55;;;;;;;12.00;4.10;;;23.80;44.70;;;;;;5058332;28;20270;-69
2023/01/16 09:50:31;;;;;;;6.87;2.60;;;23.80;44.70;;;;;;5050555;28;20632;-69
2023/01/16 09:58:36;;;;;;;7.90;2.87;;;23.90;44.80;;;;;;5062875;28;20270;-70
2023/01/16 10:01:04;;;;;;;6.23;2.50;;;23.90;44.90;;;;;;5066017;28;20283;-70
2023/01/16 10:03:31;;;;;;;10.37;3.63;;;23.80;44.80;;;;;;5068592;28;20291;-70
2023/01/16 10:06:05;;;;;;;6.83;2.77;;;23.80;44.70;;;;;;5069702;28;20200;-71
2023/01/16 10:08:40;;;;;;;6.73;2.57;;;23.80;44.60;;;;;;5068708;28;20214;-70
2023/01/16 10:11:15;;;;;;;6.67;2.57;;;23.80;44.80;;;;;;5070511;28;20218;-70
2023/01/16 10:14:02;;;;;;;7.77;2.90;;;23.80;44.80;;;;;;5068710;28;20205;-74
2023/01/16 10:16:42;;;;;;;7.23;2.80;;;23.90;44.70;;;;;;5070138;28;20217;-70
2023/01/16 10:19:18;;;;;;;8.37;3.13;;;23.80;44.60;;;;;;5069942;28;20207;-70
2023/01/16 10:22:07;;;;;;;6.27;2.50;;;23.90;45.00;;;;;;5070432;28;20209;-70
2023/01/16 10:24:46;;;;;;;6.13;2.40;;;23.80;44.80;;;;;;5068808;28;20288;-72
2023/01/16 10:27:19;;;;;;;11.93;3.93;;;23.80;44.70;;;;;;5079394;28;20202;-70
2023/01/16 10:29:51;;;;;;;7.57;2.80;;;23.80;44.60;;;;;;5069183;28;20206;-70
2023/01/16 10:32:26;;;;;;;6.87;2.57;;;23.80;44.50;;;;;;5069141;28;20245;-71
2023/01/16 10:35:00;;;;;;;8.63;3.30;;;23.80;44.60;;;;;;5069058;28;21012;-70
2023/01/16 10:37:28;;;;;;;7.93;2.97;;;23.80;44.60;;;;;;5069939;28;20266;-69
2023/01/16 10:39:56;;;;;;;11.80;3.87;;;23.80;44.80;;;;;;5066188;28;20234;-73
2023/01/16 10:50:48;;;;;;;7.63;2.90;;;23.80;44.90;;;;;;5069644;28;20199;-73
2023/01/16 10:53:16;;;;;;;7.17;2.73;;;23.80;45.10;;;;;;5068483;28;20647;-69
2023/01/16 10:55:48;;;;;;;7.17;2.60;;;23.70;44.90;;;;;;5068604;28;20239;-70
2023/01/16 10:58:24;;;;;;;5.93;2.37;;;23.70;44.80;;;;;;5067696;28;20227;-69
2023/01/16 11:00:54;;;;;;;5.20;2.17;;;23.70;45.00;;;;;;5067108;28;20213;-70
2023/01/16 11:03:30;;;;;;;6.70;2.47;;;23.70;44.80;;;;;;5068678;28;20199;-70
2023/01/16 11:06:08;;;;;;;8.17;3.20;;;23.70;44.70;;;;;;5069083;28;20301;-70
2023/01/16 11:08:35;;;;;;;7.33;2.80;;;23.70;45.00;;;;;;5057590;28;20279;-70
2023/01/16 11:11:03;;;;;;;8.57;3.20;;;23.70;45.10;;;;;;5066816;28;20200;-74
2023/01/16 11:19:18;;;;;;;7.87;3.13;;;23.60;45.00;;;;;;5068608;28;20269;-71
2023/01/16 11:21:48;;;;;;;11.43;4.03;;;23.60;45.00;;;;;;5066749;28;20213;-70
2023/01/16 11:24:18;;;;;;;6.13;2.40;;;23.60;45.00;;;;;;5067923;28;20203;-70
2023/01/16 11:26:50;;;;;;;5.40;2.50;;;23.60;45.00;;;;;;5066229;28;20203;-71
2023/01/16 11:29:18;;;;;;;8.70;3.13;;;23.60;45.00;;;;;;5066015;28;20208;-70
2023/01/16 11:31:54;;;;;;;6.53;2.50;;;23.60;45.10;;;;;;5065631;28;20206;-70
2023/01/16 11:34:25;;;;;;;6.70;2.57;;;23.60;45.00;;;;;;5067860;28;20195;-71
2023/01/16 11:36:55;;;;;;;7.37;2.80;;;23.60;45.00;;;;;;5067214;28;20235;-70
2023/01/16 11:39:25;;;;;;;6.33;2.50;;;23.60;45.00;;;;;;5067906;28;20270;-69
2023/01/16 11:41:54;;;;;;;5.90;2.47;;;23.60;45.00;;;;;;5067122;28;20195;-69
2023/01/16 11:47:12;;;;;;;9.47;3.03;;;23.60;45.00;;;;;;5064603;28;20262;-68
2023/01/16 11:49:41;;;;;;;6.37;2.43;;;23.50;44.90;;;;;;5058152;28;20207;-73
2023/01/16 11:52:14;;;;;;;8.80;3.20;;;23.50;44.90;;;;;;5066571;28;20199;-68
2023/01/16 11:54:41;;;;;;;16.00;4.70;;;23.50;44.90;;;;;;5067058;28;20207;-70
2023/01/16 11:57:21;;;;;;;10.85;3.53;;;23.50;44.90;;;;;;5064714;28;20435;-86
2023/01/16 12:00:21;;;;;;;17.47;5.37;;;23.30;45.10;;;;;;5054761;28;20202;-82
2023/01/16 12:03:06;;;;;;;7.43;2.80;;;23.30;45.00;;;;;;5064622;28;20605;-80
2023/01/16 12:05:56;;;;;;;27.63;8.13;;;23.40;45.00;;;;;;5058733;28;20267;-77
2023/01/16 12:08:55;;;;;;;7.10;2.60;;;23.50;44.90;;;;;;5065089;28;20714;-79
2023/01/16 12:11:36;;;;;;;7.90;3.00;;;23.50;44.90;;;;;;5064954;28;20273;-83
2023/01/16 12:14:18;;;;;;;6.60;2.50;;;23.60;45.00;;;;;;5064509;28;20201;-73
2023/01/16 12:17:06;;;;;;;10.87;3.57;;;23.60;45.00;;;;;;5061609;28;20348;-74
2023/01/16 12:20:07;;;;;;;13.80;4.57;;;23.60;45.00;;;;;;5056755;28;20238;-73
2023/01/16 12:22:47;;;;;;;8.40;2.83;;;23.60;45.00;;;;;;5065324;28;20203;-73
2023/01/16 12:25:26;;;;;;;6.47;2.63;;;23.70;45.10;;;;;;5055225;28;20195;-78
2023/01/16 12:28:04;;;;;;;12.53;4.20;;;23.70;45.10;;;;;;5055957;28;20566;-74
2023/01/16 12:30:47;;;;;;;6.37;2.40;;;23.70;45.10;;;;;;5064193;28;20206;-73
2023/01/16 12:33:22;;;;;;;8.37;2.87;;;23.70;45.10;;;;;;5058309;28;20203;-81
2023/01/16 12:35:59;;;;;;;6.33;2.60;;;23.70;45.10;;;;;;5062618;28;20194;-77
2023/01/16 12:38:29;;;;;;;7.80;3.17;;;23.80;45.10;;;;;;5073243;28;20321;-78
2023/01/16 12:44:18;;;;;;;9.27;3.30;;;23.80;45.00;;;;;;5069735;28;20257;-80
2023/01/16 12:46:55;;;;;;;10.93;3.90;;;23.80;44.90;;;;;;5067874;28;20303;-78
2023/01/16 12:49:34;;;;;;;10.00;3.70;;;23.80;44.90;;;;;;5056616;28;20223;-79
2023/01/16 12:52:17;;;;;;;8.37;2.97;;;23.90;45.60;;;;;;5070745;28;20286;-80
2023/01/16 12:55:06;;;;;;;12.50;4.40;;;23.90;44.90;;;;;;5056772;28;20825;-77
2023/01/16 12:57:56;;;;;;;9.83;3.67;;;23.90;44.90;;;;;;5067488;28;20210;-79
2023/01/16 13:00:26;;;;;;;7.90;3.10;;;23.90;44.80;;;;;;5072897;28;20290;-74
2023/01/16 13:02:57;;;;;;;7.87;2.70;;;23.90;44.90;;;;;;5071364;28;20195;-71
2023/01/16 13:05:27;;;;;;;13.20;4.33;;;23.90;45.00;;;;;;5072311;28;20200;-75
2023/01/16 13:08:01;;;;;;;8.27;2.77;;;23.90;44.90;;;;;;5067245;28;20539;-73
2023/01/16 13:13:24;;;;;;;8.23;2.97;;;24.00;45.00;;;;;;5062137;28;20345;-73
2023/01/16 13:15:58;;;;;;;6.53;2.37;;;24.00;45.00;;;;;;5065101;28;20216;-79
2023/01/16 13:18:28;;;;;;;6.13;2.37;;;24.00;45.00;;;;;;5068922;28;20582;-81
2023/01/16 13:20:58;;;;;;;15.67;5.07;;;24.00;45.20;;;;;;5061919;28;20215;-77
2023/01/16 13:23:31;;;;;;;5.40;2.43;;;23.90;45.00;;;;;;5064698;28;20360;-76
2023/01/16 13:26:02;;;;;;;6.40;2.60;;;23.90;45.00;;;;;;5054693;28;20201;-77
2023/01/16 13:28:42;;;;;;;5.73;2.53;;;23.90;45.00;;;;;;5068812;28;20673;-76
2023/01/16 13:31:18;;;;;;;5.60;2.33;;;24.00;45.00;;;;;;5065582;28;20199;-76
2023/01/16 13:33:48;;;;;;;6.80;2.83;;;23.90;45.00;;;;;;5070225;28;20198;-75
2023/01/16 13:36:30;;;;;;;5.03;2.23;;;23.90;45.20;;;;;;5069684;28;20199;-76
2023/01/16 13:39:12;;;;;;;6.83;2.50;;;23.90;45.10;;;;;;5069858;28;20314;-76
2023/01/16 13:41:44;;;;;;;8.93;3.13;;;23.90;45.10;;;;;;5068739;28;20199;-76
2023/01/16 13:47:06;;;;;;;8.00;2.90;;;23.90;45.20;;;;;;5069858;28;20226;-76
2023/01/16 13:49:33;;;;;;;5.43;2.23;;;23.90;45.20;;;;;;5069315;28;20203;-75
2023/01/16 13:52:02;;;;;;;7.53;2.90;;;23.80;45.20;;;;;;5068266;28;20298;-75
2023/01/16 13:54:37;;;;;;;6.07;2.40;;;23.80;45.10;;;;;;5070262;28;20218;-75
2023/01/16 13:57:09;;;;;;;5.80;2.30;;;23.80;45.10;;;;;;5070475;28;20199;-76
2023/01/16 13:59:45;;;;;;;7.87;2.50;;;23.80;45.20;;;;;;5069961;28;20314;-75
2023/01/16 14:02:38;;;;;;;6.07;2.37;;;23.80;45.20;;;;;;5067842;28;20257;-75
2023/01/16 14:05:24;;;;;;;13.93;4.60;;;23.80;45.20;;;;;;5068543;28;20211;-75